Time;durP1;ratioP1;P1;durP2;ratioP2;P2;SDS_P1;SDS_P2;PMS_P1;PMS_P2;Temp;Humidity;BMP_temperature;BMP_pressure;BME280_temperature;BME280_humidity;BME280_pressure;Samples;Min_cycle;Max_cycle;Signal;HPM_P1;HPM_P2
2022/01/21 00:00:36;;;;;;;0.20;0.20;;;1.10;99.90;;;;;;5117143;28;20043;-82
2022/01/21 00:03:02;;;;;;;0.20;0.20;;;0.70;99.90;;;;;;5150566;28;20043;-82
2022/01/21 00:05:29;;;;;;;0.10;0.10;;;1.70;99.90;;;;;;5167986;27;20035;-81
2022/01/21 00:07:56;;;;;;;0.20;0.20;;;0.70;99.90;;;;;;5168117;27;20039;-81
2022/01/21 00:10:23;;;;;;;0.15;0.15;;;0.70;99.90;;;;;;5150888;28;20054;-83
2022/01/21 00:12:52;;;;;;;0.15;0.15;;;0.70;99.90;;;;;;5117042;28;20503;-81
2022/01/21 00:15:20;;;;;;;0.20;0.20;;;1.20;99.90;;;;;;5133900;28;20458;-81
2022/01/21 00:17:46;;;;;;;0.20;0.20;;;0.80;99.90;;;;;;5116745;28;20051;-81
2022/01/21 00:31:20;;;;;;;0.20;0.20;;;1.00;99.90;;;;;;5135752;28;20130;-82
2022/01/21 00:33:46;;;;;;;0.28;0.28;;;1.10;99.90;;;;;;5116538;28;20126;-82
2022/01/21 00:36:13;;;;;;;0.10;0.10;;;1.10;99.90;;;;;;5116108;28;20527;-82
2022/01/21 00:38:42;;;;;;;0.20;0.20;;;1.10;99.90;;;;;;5116268;28;20040;-81
2022/01/21 00:41:10;;;;;;;0.20;0.20;;;1.90;99.90;;;;;;5150243;27;20480;-81
2022/01/21 00:43:44;;;;;;;0.20;0.20;;;1.00;99.90;;;;;;5116582;28;20039;-82
2022/01/21 00:46:14;;;;;;;0.20;0.20;;;1.00;99.90;;;;;;5151016;27;20377;-81
2022/01/21 00:48:41;;;;;;;0.20;0.20;;;1.00;99.90;;;;;;5133398;28;20035;-83
2022/01/21 00:51:07;;;;;;;0.17;0.17;;;1.40;99.90;;;;;;5115945;28;20897;-82
2022/01/21 00:53:34;;;;;;;0.20;0.20;;;1.00;99.90;;;;;;5116017;28;20411;-81
2022/01/21 00:56:01;;;;;;;0.20;0.20;;;1.00;99.90;;;;;;5132503;28;20047;-81
2022/01/21 00:58:27;;;;;;;0.20;0.20;;;1.60;99.90;;;;;;5116010;28;20108;-81
2022/01/21 01:00:54;;;;;;;0.20;0.20;;;1.00;99.90;;;;;;5149723;28;20048;-81
2022/01/21 01:03:21;;;;;;;0.20;0.20;;;1.10;99.90;;;;;;5115906;28;20036;-81
2022/01/21 01:05:51;;;;;;;0.10;0.10;;;1.30;99.90;;;;;;5115808;28;20046;-81
2022/01/21 01:08:19;;;;;;;0.20;0.20;;;1.00;99.90;;;;;;5132704;28;20075;-82
2022/01/21 01:21:46;;;;;;;0.20;0.20;;;0.90;99.90;;;;;;5135361;28;20047;-82
2022/01/21 01:29:45;;;;;;;0.20;0.20;;;0.90;99.90;;;;;;5134857;28;20047;-81
2022/01/21 01:32:12;;;;;;;0.20;0.20;;;1.00;99.90;;;;;;5148923;28;20401;-81
2022/01/21 01:34:39;;;;;;;0.20;0.20;;;1.30;99.90;;;;;;5115474;28;20055;-83
2022/01/21 01:37:13;;;;;;;0.20;0.20;;;1.10;99.90;;;;;;5165850;27;20073;-81
2022/01/21 01:39:45;;;;;;;0.20;0.20;;;1.40;99.90;;;;;;5133147;28;20052;-82
2022/01/21 01:42:38;;;;;;;0.15;0.15;;;1.20;99.90;;;;;;5149341;27;20461;-82
2022/01/21 01:50:38;;;;;;;0.10;0.10;;;1.40;99.90;;;;;;5149071;28;20130;-82
2022/01/21 01:53:06;;;;;;;0.17;0.17;;;1.40;99.90;;;;;;5165733;27;20078;-83
2022/01/21 01:55:34;;;;;;;0.20;0.20;;;1.40;99.90;;;;;;5132139;28;20049;-81
2022/01/21 01:58:01;;;;;;;0.20;0.20;;;2.20;99.90;;;;;;5114912;28;20515;-81
2022/01/21 02:00:28;;;;;;;0.20;0.20;;;1.40;99.90;;;;;;5114439;28;20035;-82
2022/01/21 02:03:03;;;;;;;0.17;0.17;;;1.40;99.90;;;;;;5148810;28;20436;-81
2022/01/21 02:05:30;;;;;;;0.20;0.20;;;1.40;99.90;;;;;;5148592;28;20035;-81
2022/01/21 02:07:56;;;;;;;0.20;0.20;;;1.40;99.90;;;;;;5114787;28;20097;-81
2022/01/21 02:10:23;;;;;;;0.10;0.10;;;1.40;99.90;;;;;;5114363;28;20141;-82
2022/01/21 02:12:50;;;;;;;0.10;0.10;;;1.40;99.90;;;;;;5114624;28;20051;-81
2022/01/21 02:15:17;;;;;;;0.20;0.20;;;1.50;99.90;;;;;;5114335;28;20474;-81
2022/01/21 02:22:56;;;;;;;0.20;0.20;;;1.60;99.90;;;;;;5133844;28;20097;-81
2022/01/21 02:25:22;;;;;;;0.20;0.20;;;2.00;99.90;;;;;;5114385;28;20066;-82
2022/01/21 02:27:53;;;;;;;0.20;0.20;;;2.30;99.90;;;;;;5165371;27;20068;-82
2022/01/21 02:30:22;;;;;;;0.20;0.20;;;1.40;99.90;;;;;;5182393;27;20385;-82
2022/01/21 02:32:51;;;;;;;0.10;0.10;;;2.00;99.90;;;;;;5148314;28;20042;-82
2022/01/21 02:35:19;;;;;;;0.20;0.20;;;1.40;99.90;;;;;;5164533;27;20450;-82
2022/01/21 02:37:48;;;;;;;0.20;0.20;;;2.00;99.90;;;;;;5147855;28;20480;-82
2022/01/21 02:40:15;;;;;;;0.20;0.20;;;1.50;99.90;;;;;;5147555;28;20108;-82
2022/01/21 02:42:43;;;;;;;0.10;0.10;;;1.30;99.90;;;;;;5130917;28;20035;-82
2022/01/21 02:45:13;;;;;;;0.13;0.13;;;2.00;99.90;;;;;;5165041;27;20122;-81
2022/01/21 02:47:41;;;;;;;0.10;0.10;;;1.70;99.90;;;;;;5164624;27;20512;-82
2022/01/21 02:50:10;;;;;;;0.17;0.17;;;1.30;99.90;;;;;;5130821;28;20126;-81
2022/01/21 02:52:52;;;;;;;0.20;0.20;;;1.20;99.90;;;;;;5130774;28;20523;-82
2022/01/21 02:55:19;;;;;;;0.20;0.20;;;1.20;99.90;;;;;;5164594;27;20047;-81
2022/01/21 02:57:45;;;;;;;0.20;0.20;;;1.70;99.90;;;;;;5147487;28;20084;-81
2022/01/21 03:00:12;;;;;;;0.20;0.20;;;1.10;99.90;;;;;;5130804;28;20085;-81
2022/01/21 03:02:39;;;;;;;0.10;0.10;;;1.10;99.90;;;;;;5147276;28;20399;-81
2022/01/21 03:05:13;;;;;;;0.20;0.20;;;1.40;99.90;;;;;;5113792;28;20126;-83
2022/01/21 03:07:39;;;;;;;0.20;0.20;;;1.10;99.90;;;;;;5114430;28;20489;-82
2022/01/21 03:10:07;;;;;;;0.20;0.20;;;1.10;99.90;;;;;;5130571;28;20035;-81
2022/01/21 03:12:33;;;;;;;0.20;0.20;;;1.10;99.90;;;;;;5113378;28;20044;-81
2022/01/21 03:15:00;;;;;;;0.20;0.20;;;1.10;99.90;;;;;;5147685;28;20039;-82
2022/01/21 03:17:27;;;;;;;0.20;0.20;;;1.10;99.90;;;;;;5146751;28;20412;-81
2022/01/21 03:19:54;;;;;;;0.20;0.20;;;1.10;99.90;;;;;;5130246;28;20047;-82
2022/01/21 03:22:20;;;;;;;0.20;0.20;;;1.90;99.90;;;;;;5130109;28;20042;-81
2022/01/21 03:24:47;;;;;;;0.10;0.10;;;1.10;99.90;;;;;;5147157;28;20035;-83
2022/01/21 03:27:14;;;;;;;0.20;0.20;;;1.10;99.90;;;;;;5146957;28;20042;-83
2022/01/21 03:29:40;;;;;;;0.20;0.20;;;1.30;99.90;;;;;;5130094;28;20039;-81
2022/01/21 03:32:07;;;;;;;0.20;0.20;;;2.30;99.90;;;;;;5112936;28;20473;-82
2022/01/21 03:34:35;;;;;;;0.17;0.17;;;1.20;99.90;;;;;;5113041;28;20101;-83
2022/01/21 03:37:02;;;;;;;0.20;0.20;;;1.20;99.90;;;;;;5164558;27;20135;-82
2022/01/21 03:39:29;;;;;;;0.20;0.20;;;1.30;99.90;;;;;;5146914;28;20579;-81
2022/01/21 03:41:55;;;;;;;0.20;0.20;;;1.50;99.90;;;;;;5113315;28;20067;-80
2022/01/21 03:44:22;;;;;;;0.20;0.20;;;1.40;99.90;;;;;;5112557;28;20126;-82
2022/01/21 03:46:49;;;;;;;0.20;0.20;;;1.50;99.90;;;;;;5113141;28;20040;-81
2022/01/21 03:49:16;;;;;;;0.20;0.20;;;1.50;99.90;;;;;;5129851;28;20127;-81
2022/01/21 03:51:42;;;;;;;0.10;0.10;;;1.60;99.90;;;;;;5113032;28;20036;-81
2022/01/21 03:54:09;;;;;;;0.13;0.13;;;1.50;99.90;;;;;;5113393;28;20508;-81
2022/01/21 03:56:37;;;;;;;0.20;0.20;;;1.60;99.90;;;;;;5112595;28;20044;-81
2022/01/21 03:59:03;;;;;;;0.20;0.20;;;2.40;99.90;;;;;;5129820;28;20126;-82
2022/01/21 04:01:30;;;;;;;0.20;0.20;;;1.50;99.90;;;;;;5092664;28;20120;-81
2022/01/21 04:03:57;;;;;;;0.20;0.20;;;1.40;99.90;;;;;;5109604;28;20032;-82
2022/01/21 04:06:24;;;;;;;0.20;0.20;;;1.40;99.90;;;;;;5109166;28;20040;-82
2022/01/21 04:08:51;;;;;;;0.20;0.20;;;1.40;99.90;;;;;;5112868;28;20042;-82
2022/01/21 04:11:18;;;;;;;0.20;0.20;;;1.40;99.90;;;;;;5129912;28;20032;-82
2022/01/21 04:13:46;;;;;;;0.10;0.10;;;1.70;99.90;;;;;;5095932;28;20706;-81
2022/01/21 04:16:12;;;;;;;0.20;0.20;;;1.40;99.90;;;;;;5113305;28;20032;-83
2022/01/21 04:18:39;;;;;;;0.20;0.20;;;1.30;99.90;;;;;;5129354;28;20594;-81
2022/01/21 04:21:06;;;;;;;0.20;0.20;;;1.30;99.90;;;;;;5096121;28;20043;-82
2022/01/21 04:23:33;;;;;;;0.10;0.10;;;1.30;99.90;;;;;;5112452;28;20039;-81
2022/01/21 04:25:59;;;;;;;0.20;0.20;;;1.30;99.90;;;;;;5129777;28;20032;-82
2022/01/21 04:28:26;;;;;;;0.20;0.20;;;1.30;99.90;;;;;;5112408;28;20047;-82
2022/01/21 04:30:53;;;;;;;0.20;0.20;;;1.30;99.90;;;;;;5129602;28;20070;-82
2022/01/21 04:33:19;;;;;;;0.20;0.20;;;2.20;99.90;;;;;;5096003;28;20044;-82
2022/01/21 04:35:46;;;;;;;0.20;0.20;;;2.10;99.90;;;;;;5095624;28;20112;-81
2022/01/21 04:38:16;;;;;;;0.20;0.20;;;1.30;99.90;;;;;;5129941;28;20052;-82
2022/01/21 04:40:54;;;;;;;0.20;0.20;;;2.30;99.90;;;;;;5112530;28;20126;-82
2022/01/21 04:48:50;;;;;;;0.20;0.20;;;1.20;99.90;;;;;;5121125;28;20069;-83
2022/01/21 04:51:26;;;;;;;0.20;0.20;;;1.30;99.90;;;;;;5116572;28;20039;-83
2022/01/21 04:53:53;;;;;;;0.20;0.20;;;1.30;99.90;;;;;;5132893;28;20039;-82
2022/01/21 04:56:20;;;;;;;0.25;0.25;;;1.30;99.90;;;;;;5132905;28;20075;-82
2022/01/21 04:58:48;;;;;;;0.20;0.20;;;1.50;99.90;;;;;;5132618;28;20039;-83
2022/01/21 05:01:14;;;;;;;0.20;0.20;;;2.00;99.90;;;;;;5099320;28;20036;-82
2022/01/21 05:03:42;;;;;;;0.10;0.10;;;1.40;99.90;;;;;;5132542;28;20035;-83
2022/01/21 05:06:09;;;;;;;0.13;0.13;;;1.40;99.90;;;;;;5133225;28;20038;-82
2022/01/21 05:11:06;;;;;;;0.20;0.20;;;1.50;99.90;;;;;;5133382;28;20101;-81
2022/01/21 05:13:40;;;;;;;0.20;0.20;;;1.50;99.90;;;;;;5132415;28;20043;-82
2022/01/21 05:18:53;;;;;;;0.20;0.20;;;2.10;99.90;;;;;;5134896;28;20051;-81
2022/01/21 05:21:20;;;;;;;0.10;0.10;;;1.50;99.90;;;;;;5132189;28;20102;-81
2022/01/21 05:23:47;;;;;;;0.20;0.20;;;1.80;99.90;;;;;;5132058;28;20067;-82
2022/01/21 05:26:14;;;;;;;0.10;0.10;;;2.20;99.90;;;;;;5098845;28;20035;-81
2022/01/21 05:28:40;;;;;;;0.20;0.20;;;1.60;99.90;;;;;;5131831;28;20096;-81
2022/01/21 05:31:07;;;;;;;0.10;0.10;;;1.50;99.90;;;;;;5098797;28;20126;-83
2022/01/21 05:33:34;;;;;;;0.20;0.20;;;1.60;99.90;;;;;;5132194;28;20047;-82
2022/01/21 05:36:01;;;;;;;0.20;0.20;;;1.60;99.90;;;;;;5115162;28;20052;-83
2022/01/21 05:38:27;;;;;;;0.10;0.10;;;1.60;99.90;;;;;;5132023;28;20100;-82
2022/01/21 05:40:54;;;;;;;0.20;0.20;;;1.60;99.90;;;;;;5115096;28;20079;-82
2022/01/21 05:43:21;;;;;;;0.10;0.10;;;2.30;99.90;;;;;;5098480;28;20408;-81
2022/01/21 05:48:32;;;;;;;0.20;0.20;;;1.50;99.90;;;;;;5134800;28;20039;-82
2022/01/21 05:50:59;;;;;;;0.20;0.20;;;1.40;99.90;;;;;;5098973;28;20388;-82
2022/01/21 05:53:26;;;;;;;0.20;0.20;;;2.10;99.90;;;;;;5098416;28;20471;-82
2022/01/21 05:55:54;;;;;;;0.20;0.20;;;1.50;99.90;;;;;;5097086;28;20180;-81
2022/01/21 05:58:20;;;;;;;0.20;0.20;;;1.40;99.90;;;;;;5098823;28;20070;-82
2022/01/21 06:00:47;;;;;;;0.20;0.20;;;1.30;99.90;;;;;;5098173;28;20071;-81
2022/01/21 06:03:15;;;;;;;0.20;0.20;;;1.30;99.90;;;;;;5115004;28;20044;-81
2022/01/21 06:05:43;;;;;;;0.20;0.20;;;1.60;99.90;;;;;;5131984;28;20046;-81
2022/01/21 06:08:11;;;;;;;0.20;0.20;;;1.20;99.90;;;;;;5149061;28;20032;-81
2022/01/21 06:10:37;;;;;;;0.20;0.20;;;1.20;99.90;;;;;;5114984;28;20044;-81
2022/01/21 06:13:04;;;;;;;0.20;0.20;;;1.20;99.90;;;;;;5131772;28;20035;-81
2022/01/21 06:15:31;;;;;;;0.20;0.20;;;1.20;99.90;;;;;;5099504;28;20145;-81
2022/01/21 06:17:58;;;;;;;0.20;0.20;;;1.20;99.90;;;;;;5131447;28;20040;-81
2022/01/21 06:20:25;;;;;;;0.28;0.28;;;1.40;99.90;;;;;;5097661;28;20135;-82
2022/01/21 06:22:51;;;;;;;0.20;0.20;;;1.20;99.90;;;;;;5130897;28;20568;-82
2022/01/21 06:25:18;;;;;;;0.20;0.20;;;1.90;99.90;;;;;;5131160;28;20085;-82
2022/01/21 06:27:45;;;;;;;0.20;0.20;;;1.20;99.90;;;;;;5131042;28;20066;-82
2022/01/21 06:30:13;;;;;;;0.20;0.20;;;1.40;99.90;;;;;;5097480;28;20043;-82
2022/01/21 06:32:40;;;;;;;0.20;0.20;;;1.10;99.90;;;;;;5130590;28;20078;-81
2022/01/21 06:35:08;;;;;;;0.10;0.10;;;1.20;99.90;;;;;;5131192;28;20081;-82
2022/01/21 06:37:35;;;;;;;0.17;0.17;;;1.20;99.90;;;;;;5130970;28;20461;-81
2022/01/21 06:40:04;;;;;;;0.20;0.20;;;1.30;99.90;;;;;;5097392;28;20036;-81
2022/01/21 06:42:31;;;;;;;0.20;0.20;;;1.30;99.90;;;;;;5114402;28;20045;-80
2022/01/21 06:45:00;;;;;;;0.17;0.17;;;2.20;99.90;;;;;;5113630;28;20430;-83
2022/01/21 06:47:27;;;;;;;0.20;0.20;;;1.30;99.90;;;;;;5131054;28;20096;-81
2022/01/21 06:49:54;;;;;;;0.10;0.10;;;1.40;99.90;;;;;;5113980;28;20048;-83
2022/01/21 06:52:21;;;;;;;0.20;0.20;;;1.30;99.90;;;;;;5132661;28;20602;-82
2022/01/21 06:54:48;;;;;;;0.20;0.20;;;1.90;99.90;;;;;;5115351;28;20043;-80
2022/01/21 06:57:16;;;;;;;0.22;0.22;;;2.20;99.90;;;;;;5130742;28;20082;-80
2022/01/21 06:59:43;;;;;;;0.20;0.20;;;1.30;99.90;;;;;;5113754;28;20040;-80
2022/01/21 07:02:09;;;;;;;0.15;0.15;;;1.40;99.90;;;;;;5113757;28;20529;-81
2022/01/21 07:04:36;;;;;;;0.17;0.17;;;2.30;99.90;;;;;;5147268;28;20093;-82
2022/01/21 07:07:04;;;;;;;0.10;0.10;;;2.30;99.90;;;;;;5129665;28;20146;-81
2022/01/21 07:09:31;;;;;;;0.20;0.20;;;1.40;99.90;;;;;;5164524;27;20188;-82
2022/01/21 07:11:57;;;;;;;0.20;0.20;;;1.40;99.90;;;;;;5130039;28;20097;-80
2022/01/21 07:14:24;;;;;;;0.20;0.20;;;1.30;99.90;;;;;;5147232;28;20046;-82
2022/01/21 07:16:51;;;;;;;0.17;0.17;;;1.40;99.90;;;;;;5113184;28;20041;-81
2022/01/21 07:19:18;;;;;;;0.20;0.20;;;1.40;99.90;;;;;;5146820;28;20039;-80
2022/01/21 07:21:44;;;;;;;0.22;0.22;;;1.30;99.90;;;;;;5112990;28;20560;-80
2022/01/21 07:24:11;;;;;;;0.20;0.20;;;1.30;99.90;;;;;;5109383;28;20089;-80
2022/01/21 07:26:38;;;;;;;0.20;0.20;;;1.30;99.90;;;;;;5093566;28;20127;-82
2022/01/21 07:29:05;;;;;;;0.20;0.20;;;1.30;99.90;;;;;;5129887;28;20519;-80
2022/01/21 07:31:32;;;;;;;0.20;0.20;;;1.30;99.90;;;;;;5113271;28;20040;-82
2022/01/21 07:34:01;;;;;;;0.20;0.20;;;2.10;99.90;;;;;;5112725;28;20118;-82
2022/01/21 07:36:28;;;;;;;0.20;0.20;;;1.30;99.90;;;;;;5129956;28;20589;-82
2022/01/21 07:38:55;;;;;;;0.30;0.30;;;1.30;99.90;;;;;;5137208;28;20044;-80
2022/01/21 07:41:22;;;;;;;0.20;0.20;;;1.30;99.90;;;;;;5129571;28;20036;-81
2022/01/21 07:43:49;;;;;;;0.20;0.20;;;1.40;99.90;;;;;;5129200;28;20529;-82
2022/01/21 07:46:16;;;;;;;0.20;0.20;;;1.90;99.90;;;;;;5096297;28;20036;-80
2022/01/21 07:48:43;;;;;;;0.20;0.20;;;2.00;99.90;;;;;;5129841;28;20407;-82
2022/01/21 07:51:10;;;;;;;0.22;0.22;;;1.40;99.90;;;;;;5112533;28;20134;-81
2022/01/21 07:53:37;;;;;;;0.20;0.20;;;1.40;99.90;;;;;;5146962;28;20051;-81
2022/01/21 07:56:04;;;;;;;0.20;0.20;;;1.40;99.90;;;;;;5163394;28;20039;-82
2022/01/21 07:58:31;;;;;;;0.20;0.20;;;1.40;99.90;;;;;;5129460;28;20511;-80
2022/01/21 08:00:58;;;;;;;0.20;0.20;;;1.40;99.90;;;;;;5092138;28;20074;-81
2022/01/21 08:03:25;;;;;;;0.20;0.20;;;1.50;99.90;;;;;;5113087;28;20040;-81
2022/01/21 08:05:52;;;;;;;0.10;0.10;;;1.40;99.90;;;;;;5112796;28;20381;-80
2022/01/21 08:08:19;;;;;;;0.15;0.15;;;1.50;99.90;;;;;;5129789;28;20038;-80
2022/01/21 08:10:45;;;;;;;0.13;0.13;;;2.20;99.90;;;;;;5112546;28;20464;-82
2022/01/21 08:13:12;;;;;;;0.10;0.10;;;1.50;99.90;;;;;;5112371;28;20087;-80
2022/01/21 08:15:39;;;;;;;0.10;0.10;;;1.50;99.90;;;;;;5146508;28;20082;-82
2022/01/21 08:18:06;;;;;;;0.20;0.20;;;2.10;99.90;;;;;;5142983;28;20050;-81
2022/01/21 08:20:33;;;;;;;0.10;0.10;;;1.40;99.90;;;;;;5130074;28;20071;-82
2022/01/21 08:22:59;;;;;;;0.20;0.20;;;1.50;99.90;;;;;;5115907;28;20031;-82
2022/01/21 08:25:28;;;;;;;0.20;0.20;;;1.50;99.90;;;;;;5116639;28;20047;-82
2022/01/21 08:27:55;;;;;;;0.20;0.20;;;1.50;99.90;;;;;;5133168;28;20066;-83
2022/01/21 08:30:22;;;;;;;0.20;0.20;;;2.40;99.90;;;;;;5112389;28;20036;-83
2022/01/21 08:32:49;;;;;;;0.10;0.10;;;2.30;99.90;;;;;;5112692;28;20047;-83
2022/01/21 08:35:17;;;;;;;0.20;0.20;;;1.60;99.90;;;;;;5099404;28;20056;-83
2022/01/21 08:37:44;;;;;;;0.13;0.13;;;2.50;99.90;;;;;;5112319;28;20093;-82
2022/01/21 08:40:11;;;;;;;0.13;0.13;;;1.80;99.90;;;;;;5132704;28;20438;-82
2022/01/21 08:42:37;;;;;;;0.20;0.20;;;1.80;99.90;;;;;;5141249;28;20024;-82
2022/01/21 08:45:05;;;;;;;0.20;0.20;;;2.10;99.90;;;;;;5111691;28;20105;-82
2022/01/21 08:47:32;;;;;;;0.20;0.20;;;2.00;99.90;;;;;;5112429;28;20055;-83
2022/01/21 08:50:06;;;;;;;0.10;0.10;;;1.90;99.90;;;;;;5129047;28;20097;-82
2022/01/21 08:52:36;;;;;;;0.10;0.10;;;3.20;99.90;;;;;;5128894;28;20504;-83
2022/01/21 08:55:05;;;;;;;0.10;0.10;;;2.20;99.90;;;;;;5128759;28;20036;-83
2022/01/21 08:57:34;;;;;;;0.10;0.10;;;2.80;99.90;;;;;;5129180;28;20099;-84
2022/01/21 09:00:01;;;;;;;0.17;0.17;;;3.10;99.90;;;;;;5145965;27;20040;-83
2022/01/21 09:02:33;;;;;;;0.20;0.20;;;2.50;99.90;;;;;;5121271;28;20036;-82
2022/01/21 09:05:00;;;;;;;0.10;0.10;;;2.40;99.90;;;;;;5132140;28;20399;-82
2022/01/21 09:07:27;;;;;;;0.20;0.20;;;2.70;99.90;;;;;;5132418;28;20035;-82
2022/01/21 09:09:53;;;;;;;0.20;0.20;;;2.70;99.90;;;;;;5098667;28;20464;-84
2022/01/21 09:12:20;;;;;;;0.20;0.20;;;2.80;99.90;;;;;;5098548;28;20051;-84
2022/01/21 09:14:47;;;;;;;0.20;0.20;;;2.90;99.90;;;;;;5132106;28;20046;-82
2022/01/21 09:17:17;;;;;;;0.20;0.20;;;2.90;99.90;;;;;;5115689;28;20054;-84
2022/01/21 09:19:44;;;;;;;0.10;0.10;;;3.00;99.90;;;;;;5131981;28;20520;-83
2022/01/21 09:22:10;;;;;;;0.20;0.20;;;3.60;99.90;;;;;;5098162;28;20089;-83
2022/01/21 09:24:37;;;;;;;0.20;0.20;;;3.00;99.90;;;;;;5098831;28;20031;-83
2022/01/21 09:27:05;;;;;;;0.15;0.15;;;3.30;99.90;;;;;;5115249;28;20104;-84
2022/01/21 09:29:32;;;;;;;0.10;0.10;;;3.10;99.90;;;;;;5131260;28;20079;-83
2022/01/21 09:31:59;;;;;;;0.10;0.10;;;3.30;99.90;;;;;;5130859;28;20083;-83
2022/01/21 09:34:28;;;;;;;0.10;0.10;;;3.30;99.90;;;;;;5114898;28;20055;-84
2022/01/21 09:36:57;;;;;;;0.20;0.20;;;3.50;99.90;;;;;;5131551;28;20048;-83
2022/01/21 09:39:26;;;;;;;0.10;0.10;;;3.30;99.90;;;;;;5131561;28;20043;-83
2022/01/21 09:41:58;;;;;;;0.10;0.10;;;4.50;99.90;;;;;;5131934;28;20071;-84
2022/01/21 09:44:27;;;;;;;0.17;0.17;;;3.80;99.90;;;;;;5131629;28;20557;-83
2022/01/21 09:46:58;;;;;;;0.10;0.10;;;2.80;99.90;;;;;;5131770;28;20079;-83
2022/01/21 09:51:57;;;;;;;0.10;0.10;;;4.20;99.90;;;;;;5114652;28;20047;-84
2022/01/21 09:54:26;;;;;;;0.20;0.20;;;3.50;99.90;;;;;;5132281;28;20039;-84
2022/01/21 09:56:55;;;;;;;0.10;0.10;;;3.50;99.90;;;;;;5131620;28;20043;-82
2022/01/21 09:59:24;;;;;;;0.10;0.10;;;3.60;99.90;;;;;;5130457;28;20412;-84
2022/01/21 10:01:56;;;;;;;0.10;0.10;;;4.40;99.90;;;;;;5131122;28;20123;-83
2022/01/21 10:04:33;;;;;;;0.10;0.10;;;3.70;99.90;;;;;;5130976;28;20454;-84
2022/01/21 10:07:01;;;;;;;0.10;0.10;;;3.70;99.90;;;;;;5130579;28;20067;-84
2022/01/21 10:09:28;;;;;;;0.10;0.10;;;3.70;99.90;;;;;;5131099;28;20036;-83
2022/01/21 10:11:57;;;;;;;0.10;0.10;;;3.80;99.90;;;;;;5131173;28;20484;-83
2022/01/21 10:14:26;;;;;;;0.10;0.10;;;3.90;99.90;;;;;;5127603;28;20051;-83
2022/01/21 10:16:55;;;;;;;0.10;0.10;;;3.90;99.90;;;;;;5130113;28;20043;-82
2022/01/21 10:19:23;;;;;;;0.10;0.10;;;3.90;99.90;;;;;;5112020;28;20122;-82
2022/01/21 10:22:03;;;;;;;0.10;0.10;;;3.90;99.90;;;;;;5129837;28;20042;-82
2022/01/21 10:24:32;;;;;;;0.10;0.10;;;3.90;99.90;;;;;;5130635;28;20039;-85
2022/01/21 10:26:59;;;;;;;0.10;0.10;;;3.90;99.90;;;;;;5130903;28;20035;-82
2022/01/21 10:29:41;;;;;;;0.10;0.10;;;3.90;99.90;;;;;;5110329;28;20131;-84
2022/01/21 10:32:08;;;;;;;0.10;0.10;;;4.80;99.90;;;;;;5127247;28;20082;-84
2022/01/21 10:34:44;;;;;;;0.10;0.10;;;4.60;99.90;;;;;;5130164;28;20044;-82
2022/01/21 10:37:27;;;;;;;0.10;0.10;;;4.20;99.90;;;;;;5164039;27;20123;-80
2022/01/21 10:40:05;;;;;;;0.10;0.10;;;4.10;99.90;;;;;;5130628;28;20500;-86
2022/01/21 10:42:32;;;;;;;0.10;0.10;;;4.10;99.90;;;;;;5148936;27;20468;-83
2022/01/21 10:44:59;;;;;;;2.20;0.47;;;4.20;99.90;;;;;;5130700;28;20074;-82
2022/01/21 10:47:30;;;;;;;0.10;0.10;;;4.60;99.90;;;;;;5096904;28;20123;-81
2022/01/21 10:50:09;;;;;;;0.10;0.10;;;4.30;99.90;;;;;;5130018;28;20036;-80
2022/01/21 10:52:52;;;;;;;0.10;0.10;;;4.30;99.90;;;;;;5130196;28;20047;-82
2022/01/21 10:55:38;;;;;;;0.10;0.10;;;4.40;99.90;;;;;;5130047;28;20039;-80
2022/01/21 10:58:09;;;;;;;0.10;0.10;;;4.40;99.90;;;;;;5163845;27;20130;-80
2022/01/21 11:00:37;;;;;;;0.10;0.10;;;4.50;99.90;;;;;;5164212;27;20483;-79
2022/01/21 11:03:15;;;;;;;0.10;0.10;;;4.50;99.90;;;;;;5112762;28;20039;-82
2022/01/21 11:05:46;;;;;;;0.10;0.10;;;4.40;99.90;;;;;;5134354;27;20435;-83
2022/01/21 11:08:14;;;;;;;0.10;0.10;;;4.50;99.90;;;;;;5114447;28;20044;-81
2022/01/21 11:10:50;;;;;;;0.10;0.10;;;4.40;99.90;;;;;;5147496;28;20082;-81
2022/01/21 11:13:20;;;;;;;;;;;4.40;99.90;;;;;;5164657;27;20100;-82
2022/01/21 11:16:04;;;;;;;0.00;0.00;;;4.50;99.90;;;;;;5130494;28;19915;-82
2022/01/21 11:18:31;;;;;;;0.10;0.10;;;4.40;99.90;;;;;;5163297;27;20523;-81
2022/01/21 11:21:05;;;;;;;0.10;0.10;;;4.70;99.90;;;;;;5115518;28;20069;-82
2022/01/21 11:23:33;;;;;;;0.10;0.10;;;4.40;99.90;;;;;;5132691;28;20039;-83
2022/01/21 11:26:04;;;;;;;0.10;0.10;;;4.50;99.90;;;;;;5132522;28;20043;-83
2022/01/21 11:28:38;;;;;;;0.10;0.10;;;4.40;99.90;;;;;;5131889;28;20035;-81
2022/01/21 11:31:07;;;;;;;0.10;0.10;;;4.40;99.90;;;;;;5128932;28;20389;-80
2022/01/21 11:33:35;;;;;;;0.10;0.10;;;4.40;99.90;;;;;;5129605;28;20047;-81
2022/01/21 11:36:04;;;;;;;0.10;0.10;;;4.50;99.90;;;;;;5129325;28;20055;-81
2022/01/21 11:38:35;;;;;;;0.10;0.10;;;4.50;99.90;;;;;;5146275;28;20126;-81
2022/01/21 11:41:03;;;;;;;0.10;0.10;;;4.50;99.90;;;;;;5129024;28;20051;-82
2022/01/21 11:43:31;;;;;;;0.10;0.10;;;4.90;99.90;;;;;;5128624;28;20035;-82
2022/01/21 11:48:50;;;;;;;0.10;0.10;;;4.60;99.90;;;;;;5129186;28;20039;-82
2022/01/21 11:51:32;;;;;;;0.10;0.10;;;4.60;99.90;;;;;;5128635;28;20043;-82
2022/01/21 11:54:07;;;;;;;0.10;0.10;;;4.70;99.90;;;;;;5130396;28;20076;-82
2022/01/21 11:56:34;;;;;;;0.00;0.00;;;4.70;99.90;;;;;;5134424;28;20052;-83
2022/01/21 11:59:43;;;;;;;0.10;0.10;;;4.90;99.90;;;;;;5133543;28;20452;-81
2022/01/21 12:02:15;;;;;;;0.10;0.10;;;4.80;99.90;;;;;;5149829;28;20126;-82
2022/01/21 12:04:45;;;;;;;0.10;0.10;;;4.90;99.90;;;;;;5133316;28;20492;-82
2022/01/21 12:07:34;;;;;;;0.10;0.10;;;4.90;99.90;;;;;;5149866;28;20067;-82
2022/01/21 12:10:08;;;;;;;0.10;0.10;;;4.90;99.90;;;;;;5133695;28;20047;-82
2022/01/21 12:16:06;;;;;;;0.10;0.10;;;5.10;99.90;;;;;;5149499;28;20054;-81
2022/01/21 12:18:41;;;;;;;0.10;0.10;;;5.20;99.90;;;;;;5133151;28;20082;-82
2022/01/21 12:21:28;;;;;;;0.10;0.10;;;5.20;99.90;;;;;;5130677;28;20442;-81
2022/01/21 12:23:55;;;;;;;0.10;0.10;;;5.30;99.90;;;;;;5133299;28;20039;-82
2022/01/21 12:26:26;;;;;;;0.10;0.10;;;5.40;99.90;;;;;;5150162;27;20028;-81
2022/01/21 12:28:57;;;;;;;0.10;0.10;;;5.50;99.90;;;;;;5133121;28;20373;-82
2022/01/21 12:31:50;;;;;;;0.00;0.00;;;5.60;99.90;;;;;;5132878;28;20427;-81
2022/01/21 12:34:16;;;;;;;0.10;0.10;;;5.60;99.90;;;;;;5149218;28;20075;-81
2022/01/21 12:36:50;;;;;;;0.10;0.10;;;5.70;99.90;;;;;;5132957;28;20062;-81
2022/01/21 12:39:48;;;;;;;0.10;0.10;;;5.70;99.90;;;;;;5166743;27;20036;-81
2022/01/21 12:42:21;;;;;;;0.10;0.10;;;5.80;99.90;;;;;;5132475;28;20122;-80
2022/01/21 12:44:49;;;;;;;0.10;0.10;;;6.00;99.90;;;;;;5132785;28;20036;-81
2022/01/21 12:47:43;;;;;;;0.10;0.10;;;5.90;99.90;;;;;;5149592;28;20039;-82
2022/01/21 12:50:16;;;;;;;0.10;0.10;;;5.90;99.90;;;;;;5183687;27;20046;-81
2022/01/21 12:53:15;;;;;;;0.10;0.10;;;5.90;99.90;;;;;;5132671;28;20043;-81
2022/01/21 12:58:27;;;;;;;0.10;0.10;;;5.90;99.90;;;;;;5149372;28;20051;-81
2022/01/21 13:01:09;;;;;;;0.20;0.20;;;5.90;99.90;;;;;;5132206;28;20127;-81
2022/01/21 13:03:49;;;;;;;0.10;0.10;;;5.90;99.90;;;;;;5166313;27;20404;-82
2022/01/21 13:06:18;;;;;;;0.10;0.10;;;5.90;99.90;;;;;;5132019;28;20492;-82
2022/01/21 13:09:09;;;;;;;0.10;0.10;;;6.00;99.90;;;;;;5132296;28;20044;-82
2022/01/21 13:11:42;;;;;;;0.10;0.10;;;6.00;99.90;;;;;;5149054;28;20047;-81
2022/01/21 13:17:14;;;;;;;0.10;0.10;;;6.00;99.90;;;;;;5149521;28;20054;-80
2022/01/21 13:19:55;;;;;;;0.10;0.10;;;6.20;99.90;;;;;;5121760;28;20061;-82
2022/01/21 13:22:31;;;;;;;0.10;0.10;;;6.00;99.90;;;;;;5115100;28;20092;-81
2022/01/21 13:25:05;;;;;;;;;;;6.00;99.90;;;;;;5132276;28;20103;-82
2022/01/21 13:27:33;;;;;;;0.10;0.10;;;6.00;99.90;;;;;;5165857;27;19984;-82
2022/01/21 13:30:06;;;;;;;0.10;0.10;;;6.00;99.90;;;;;;5132140;28;20040;-82
2022/01/21 13:32:32;;;;;;;0.10;0.10;;;6.00;99.90;;;;;;5131434;28;20036;-82
2022/01/21 13:35:11;;;;;;;0.10;0.10;;;6.00;99.90;;;;;;5115111;28;20104;-82
2022/01/21 13:37:40;;;;;;;0.10;0.10;;;6.00;99.90;;;;;;5131887;28;20805;-81
2022/01/21 13:40:09;;;;;;;0.10;0.10;;;6.20;99.90;;;;;;5131875;28;20062;-81
2022/01/21 13:42:36;;;;;;;0.10;0.10;;;6.10;99.90;;;;;;5131318;28;20088;-81
2022/01/21 13:45:08;;;;;;;0.10;0.10;;;6.10;99.90;;;;;;5114947;28;20040;-81
2022/01/21 13:47:48;;;;;;;0.08;0.08;;;6.10;99.90;;;;;;5131626;28;20043;-81
2022/01/21 13:50:22;;;;;;;0.08;0.08;;;6.10;99.90;;;;;;5131644;28;20196;-82
2022/01/21 13:52:53;;;;;;;0.10;0.10;;;6.20;99.90;;;;;;5148361;28;20047;-81
2022/01/21 13:55:41;;;;;;;0.00;0.00;;;6.20;99.90;;;;;;5130912;28;20130;-81
2022/01/21 13:58:19;;;;;;;0.10;0.10;;;6.10;99.90;;;;;;5131390;28;20445;-82
2022/01/21 14:00:49;;;;;;;0.10;0.10;;;6.10;99.90;;;;;;5131473;28;20047;-81
2022/01/21 14:03:24;;;;;;;0.10;0.10;;;6.10;99.90;;;;;;5130442;28;20055;-82
2022/01/21 14:05:57;;;;;;;0.10;0.10;;;6.10;99.90;;;;;;5131369;28;20054;-81
2022/01/21 14:08:43;;;;;;;0.10;0.10;;;6.10;99.90;;;;;;5130855;28;20036;-83
2022/01/21 14:11:11;;;;;;;0.10;0.10;;;6.00;99.90;;;;;;5130774;28;20079;-82
2022/01/21 14:13:46;;;;;;;0.10;0.10;;;6.00;99.90;;;;;;5130752;28;20043;-82
2022/01/21 14:16:26;;;;;;;0.10;0.10;;;6.00;99.90;;;;;;5147361;28;20504;-82